Latest Weather Observations for Leonora Airport

IDW60801

Issued at 8:03 pm WST Sunday 19 November 2017 (issued every 30 minutes, with the page automatically refreshed every 10 minutes)

About weather observations | Map of weather stations | Latest weather observations for WA | Other Formats
Station Details ID: 012241 Name: LEONORA AERO Lat: -28.88 Lon: 121.32 Height: 370.0 m
Data from the previous 72 hours. | See also: Recent months at Leonora Airport
Date/Time
WST
Temp
°C
App
Temp
°C
Dew
Point
°C
Rel
Hum
%
Delta-T
°C
Wind Press
QNH
hPa
Press
MSL
hPa
Rain since
9am
mm
Dir  Spd
km/h
Gust
km/h
Spd
kts
Gust
kts
19/08:00pm 27.6 24.5 1.2 18 12.9 S 7 11 4 6 1011.1 1009.1 0.0
19/07:30pm 28.2 24.4 1.7 18 13.1 S 11 13 6 7 1011.0 1009.0 0.0
19/07:00pm 29.2 25.2 0.8 16 13.9 S 11 13 6 7 1010.7 1008.7 0.0
19/06:30pm 30.5 26.8 0.0 14 14.9 SSW 9 15 5 8 1010.2 1008.2 0.0
19/06:00pm 32.0 29.3 -2.1 11 16.2 SSW 2 7 1 4 1009.9 1007.8 0.0
19/05:30pm 32.0 27.3 -2.1 11 16.2 SW 13 17 7 9 1009.6 1007.6 0.0
19/05:00pm 31.8 28.7 -2.3 11 16.2 N 4 11 2 6 1009.3 1007.3 0.0
19/04:30pm 32.7 29.4 -1.6 11 16.5 WSW 6 17 3 9 1009.3 1007.3 0.0
19/04:00pm 32.4 28.7 -3.1 10 16.7 W 7 19 4 10 1009.5 1007.5 0.0
19/03:30pm 32.2 28.8 -2.0 11 16.3 WNW 6 15 3 8 1009.5 1007.5 0.0
19/03:00pm 32.6 27.9 -1.7 11 16.5 SW 13 32 7 17 1009.5 1007.5 0.0
19/02:30pm 32.4 28.2 -0.6 12 16.1 SW 11 24 6 13 1009.8 1007.7 0.0
19/02:00pm 31.6 27.4 -1.2 12 15.8 WSW 11 24 6 13 1010.3 1008.3 0.0
19/01:30pm 30.5 26.3 -1.0 13 15.1 S 11 22 6 12 1010.5 1008.5 0.0
19/01:00pm 29.5 25.8 0.2 15 14.3 S 9 17 5 9 1011.0 1009.0 0.0
19/12:30pm 29.8 26.2 0.4 15 14.4 WSW 9 19 5 10 1011.3 1009.3 0.0
19/12:00pm 29.8 25.2 1.3 16 14.2 SW 15 24 8 13 1011.6 1009.6 0.0
19/11:30am 29.1 24.6 -0.1 15 14.1 SW 13 20 7 11 1011.8 1009.8 0.0
19/11:00am 27.8 22.7 0.5 17 13.2 W 17 26 9 14 1012.1 1010.1 0.0
19/10:30am 27.2 23.1 2.3 20 12.4 SW 13 26 7 14 1012.4 1010.5 0.0
19/10:00am 27.0 23.2 4.1 23 11.7 SSW 13 20 7 11 1012.8 1010.8 0.0
19/09:30am 26.0 22.9 5.6 27 10.7 WSW 11 19 6 10 1012.9 1010.9 0.0
19/09:00am 25.4 22.9 6.6 30 10.0 SSW 9 24 5 13 1013.0 1011.0 0.0
19/08:30am 24.3 20.8 7.4 34 9.0 SSW 15 24 8 13 1013.0 1011.0 0.0
19/08:00am 23.2 20.4 8.5 39 8.0 S 13 20 7 11 1013.1 1011.1 0.0
19/07:30am 22.7 20.2 9.8 44 7.1 S 13 19 7 10 1013.1 1011.1 0.0
19/07:00am 21.0 17.8 9.9 49 6.1 S 17 26 9 14 1012.8 1010.8 0.0
19/06:30am 20.0 16.1 9.6 51 5.6 S 20 28 11 15 1012.4 1010.5 0.0
19/06:00am 19.0 15.5 8.9 52 5.4 SSW 17 26 9 14 1012.3 1010.4 0.0
19/05:30am 17.1 14.9 8.0 55 4.7 SSW 9 13 5 7 1012.2 1010.2 0.0
19/05:00am 15.5 13.1 7.0 57 4.3 SSW 9 11 5 6 1012.0 1010.0 0.0
19/04:30am 15.9 13.1 7.1 56 4.4 SSW 11 15 6 8 1011.5 1009.5 0.0
19/04:00am 15.6 12.4 6.9 56 4.4 SSW 13 15 7 8 1011.3 1009.3 0.0
19/03:30am 15.6 13.0 6.3 54 4.6 SSW 9 11 5 6 1011.3 1009.3 0.0
19/03:00am 16.1 14.0 6.5 53 4.8 SW 7 9 4 5 1011.1 1009.1 0.0
19/02:30am 16.7 14.5 6.2 50 5.2 SW 7 9 4 5 1011.2 1009.2 0.0
19/02:00am 17.3 14.7 6.2 48 5.6 SW 9 11 5 6 1011.2 1009.2 0.0
19/01:30am 17.5 14.9 6.1 47 5.7 SSW 9 11 5 6 1011.3 1009.3 0.0
19/01:00am 18.0 15.0 6.2 46 5.9 SSW 11 11 6 6 1011.4 1009.4 0.0
19/12:30am 18.7 16.1 6.2 44 6.3 SSW 9 13 5 7 1011.5 1009.5 0.0
19/12:00am 20.0 16.6 6.0 40 7.1 SSW 13 19 7 10 1011.8 1009.8 0.0
 
Date/Time
WST
Temp
°C
App
Temp
°C
Dew
Point
°C
Rel
Hum
%
Delta-T
°C
Wind Press
QNH
hPa
Press
MSL
hPa
Rain since
9am
mm
Dir  Spd
km/h
Gust
km/h
Spd
kts
Gust
kts
18/11:30pm 20.8 16.3 6.0 38 7.5 SW 19 28 10 15 1011.8 1009.8 0.0
18/11:00pm 21.6 15.7 5.9 36 8.0 SW 26 35 14 19 1011.5 1009.5 0.0
18/10:30pm 22.2 15.5 5.6 34 8.5 SW 30 44 16 24 1011.3 1009.3 0.0
18/10:00pm 22.6 17.6 6.4 35 8.4 SW 22 37 12 20 1011.3 1009.3 0.0
18/09:30pm 23.3 18.1 5.7 32 9.1 WSW 22 32 12 17 1011.3 1009.3 0.0
18/09:00pm 23.4 20.1 6.2 33 9.0 WSW 13 19 7 10 1011.1 1009.1 0.0
18/08:30pm 23.8 19.7 6.1 32 9.2 WSW 17 22 9 12 1010.8 1008.8 0.0
18/08:00pm 24.3 18.7 5.6 30 9.7 WSW 24 35 13 19 1010.5 1008.5 0.0
18/07:30pm 24.8 19.0 4.5 27 10.3 WSW 24 37 13 20 1010.1 1008.1 0.0
18/07:00pm 25.5 19.8 5.1 27 10.5 WSW 24 37 13 20 1009.8 1007.7 0.0
18/06:35pm 26.2 19.9 5.7 27 10.7 WSW 28 46 15 25 1009.1 1007.1 0.0
18/06:30pm 26.2 19.7 6.3 28 10.5 W 30 46 16 25 1009.0 1007.0 0.0
18/06:00pm 26.9 19.6 7.4 29 10.6 W 35 52 19 28 1008.4 1006.4 0.0
18/05:35pm 27.4 20.6 7.8 29 10.7 W 33 52 18 28 1008.0 1006.0 0.0
18/05:30pm 27.6 20.6 8.5 30 10.6 W 35 48 19 26 1007.9 1005.9 0.0
18/05:00pm 28.1 21.0 9.4 31 10.6 W 37 48 20 26 1007.3 1005.2 0.0
18/04:54pm 28.2 21.1 9.5 31 10.6 W 37 50 20 27 1007.2 1005.1 0.0
18/04:38pm 28.3 21.0 8.6 29 11.0 WNW 37 57 20 31 1007.0 1004.9 0.0
18/04:30pm 28.7 20.9 8.4 28 11.3 W 39 54 21 29 1006.9 1004.8 0.0
18/04:00pm 28.9 21.8 9.6 30 11.0 W 37 57 20 31 1006.5 1004.5 0.0
18/03:33pm 28.6 22.8 9.3 30 10.9 WSW 30 48 16 26 1006.1 1004.1 0.0
18/03:30pm 27.7 21.4 9.0 31 10.5 WSW 32 48 17 26 1006.1 1004.1 0.0
18/03:29pm 28.1 22.3 9.4 31 10.5 WSW 30 48 16 26 1006.1 1004.1 0.0
18/03:00pm 28.1 21.9 9.4 31 10.6 WSW 32 48 17 26 1006.3 1004.3 0.0
18/02:30pm 26.8 19.6 9.2 33 9.8 WSW 37 54 20 29 1006.4 1004.4 0.0
18/02:00pm 27.3 18.4 9.2 32 10.2 WSW 46 67 25 36 1006.0 1004.0 0.0
18/01:50pm 28.2 19.0 9.5 31 10.6 W 48 76 26 41 1005.7 1003.7 0.0
18/01:45pm 29.2 20.5 8.3 27 11.6 WNW 44 76 24 41 1005.2 1003.2 0.0
18/01:30pm 34.4 25.3 4.0 15 16.2 NW 41 59 22 32 1004.6 1002.5 0.0
18/01:17pm 35.0 25.4 3.5 14 16.7 NW 43 65 23 35 1004.6 1002.5 0.0
18/01:16pm 34.7 25.1 3.3 14 16.6 NW 43 65 23 35 1004.6 1002.5 0.0
18/01:00pm 34.1 23.9 0.7 12 16.9 NNW 44 65 24 35 1004.5 1002.4 0.0
18/12:30pm 34.4 26.4 5.8 17 15.7 NNW 37 56 20 30 1004.8 1002.7 0.0
18/12:00pm 33.8 26.8 7.0 19 15.0 NNW 33 52 18 28 1005.4 1003.4 0.0
18/11:40am 33.4 27.5 7.4 20 14.6 NNW 28 46 15 25 1005.7 1003.7 0.0
18/11:30am 33.5 27.6 7.5 20 14.6 NW 28 43 15 23 1006.0 1004.0 0.0
18/11:21am 32.3 26.5 7.9 22 13.7 WNW 28 46 15 25 1006.0 1004.0 0.0
18/11:00am 33.0 27.9 9.1 23 13.8 WNW 26 37 14 20 1006.4 1004.4 0.0
18/10:30am 32.6 26.8 8.1 22 13.8 WNW 28 41 15 22 1006.4 1004.4 0.0
18/10:10am 32.5 27.8 9.3 24 13.3 WNW 24 46 13 25 1006.4 1004.4 0.0
18/10:00am 32.1 28.7 9.0 24 13.2 WNW 17 32 9 17 1006.3 1004.3 0.0
18/09:30am 30.8 28.0 8.5 25 12.6 NNW 13 24 7 13 1006.2 1004.2 0.0
18/09:00am 29.9 29.3 10.5 30 11.3 NE 4 13 2 7 1006.1 1004.1 0.8
18/08:30am 29.0 28.0 11.1 33 10.4 ESE 7 13 4 7 1006.2 1004.2 0.8
18/08:00am 28.4 26.8 11.5 35 9.9 ESE 11 17 6 9 1006.3 1004.3 0.6
18/07:30am 27.6 25.4 10.8 35 9.7 SE 13 20 7 11 1006.7 1004.7 0.6
18/07:00am 26.7 25.4 11.2 38 9.0 SE 9 13 5 7 1007.0 1004.9 0.6
18/06:30am 25.6 24.9 12.1 43 7.9 SSE 7 11 4 6 1006.7 1004.7 0.6
18/06:00am 23.9 24.6 12.2 48 6.8 CALM 0 0 0 0 1006.6 1004.6 0.6
18/05:30am 21.7 22.3 12.0 54 5.5 CALM 0 0 0 0 1006.4 1004.4 0.6
18/05:00am 21.1 21.4 10.9 52 5.7 CALM 0 0 0 0 1005.9 1003.9 0.6
18/04:30am 21.4 21.8 11.4 53 5.6 CALM 0 0 0 0 1005.7 1003.7 0.6
18/04:00am 22.6 21.5 10.1 45 7.0 W 6 7 3 4 1005.5 1003.5 0.6
18/03:30am 23.3 21.9 9.7 42 7.5 W 7 9 4 5 1005.5 1003.5 0.6
18/03:00am 23.6 22.8 9.6 41 7.8 WNW 4 6 2 3 1005.5 1003.5 0.6
18/02:30am 24.1 22.7 9.7 40 8.0 W 7 9 4 5 1005.6 1003.6 0.6
18/02:00am 24.7 23.1 8.6 36 8.8 W 7 9 4 5 1005.4 1003.4 0.6
18/01:30am 24.7 23.0 9.8 39 8.3 W 9 13 5 7 1005.4 1003.4 0.6
18/01:00am 24.9 25.5 11.8 44 7.6 CALM 0 0 0 0 1005.4 1003.4 0.6
18/12:30am 25.6 24.3 9.8 37 8.9 WNW 7 9 4 5 1005.8 1003.8 0.6
18/12:00am 25.7 24.0 9.9 37 8.9 WNW 9 11 5 6 1005.9 1003.9 0.6
 
Date/Time
WST
Temp
°C
App
Temp
°C
Dew
Point
°C
Rel
Hum
%
Delta-T
°C
Wind Press
QNH
hPa
Press
MSL
hPa
Rain since
9am
mm
Dir  Spd
km/h
Gust
km/h
Spd
kts
Gust
kts
17/11:30pm 25.0 24.1 12.6 46 7.3 WNW 9 11 5 6 1006.0 1004.0 0.6
17/11:00pm 25.0 24.5 14.8 53 6.2 WNW 11 13 6 7 1006.2 1004.2 0.6
17/10:30pm 24.0 26.1 18.0 69 3.8 WSW 4 7 2 4 1005.8 1003.8 0.6
17/10:00pm 24.9 26.0 16.6 60 5.2 SW 6 9 3 5 1005.8 1003.8 0.6
17/09:30pm 25.3 25.9 16.7 59 5.4 SSW 9 13 5 7 1005.2 1003.2 0.6
17/09:00pm 26.6 26.9 15.9 51 6.7 ENE 9 15 5 8 1004.9 1002.8 0.6
17/08:31pm 25.1 24.8 17.3 62 4.9 NE 15 24 8 13 1005.7 1003.7 0.6
17/08:30pm 24.9 24.4 16.9 61 5.0 NE 15 24 8 13 1005.7 1003.7 0.6
17/08:25pm 25.3 22.6 16.7 59 5.4 NNE 26 48 14 26 1005.7 1003.7 0.6
17/08:17pm 24.0 17.2 15.8 60 5.0 N 46 69 25 37 1006.1 1004.1 0.6
17/08:15pm 24.4 18.1 15.6 58 5.4 N 43 69 23 37 1005.9 1003.9 0.6
17/08:13pm 23.0 17.5 14.8 60 4.9 N 37 69 20 37 1006.1 1004.1 0.4
17/08:11pm 28.5 24.2 13.2 39 9.2 NNW 28 69 15 37 1006.1 1004.1 0.0
17/08:09pm 30.9 27.6 9.7 27 12.2 NNW 17 63 9 34 1006.2 1004.2 0.0
17/08:00pm 30.1 28.8 9.1 27 11.9 WSW 6 11 3 6 1004.6 1002.5 0.0
17/07:30pm 30.6 27.9 8.9 26 12.3 WSW 13 17 7 9 1004.4 1002.3 0.0
17/07:00pm 30.6 23.6 10.0 28 11.9 W 37 50 20 27 1004.2 1002.1 0.0
17/06:53pm 31.2 22.9 10.0 27 12.2 WNW 44 65 24 35 1004.2 1002.1 0.0
17/06:47pm 32.3 25.5 9.2 24 13.2 NW 35 65 19 35 1004.2 1002.1 0.0
17/06:44pm 34.2 28.4 8.0 20 14.9 NW 28 63 15 34 1004.3 1002.2 0.0
17/06:30pm 35.9 30.3 5.2 15 16.8 NW 24 32 13 17 1003.4 1001.4 0.0
17/06:00pm 36.3 29.2 3.5 13 17.6 NW 30 43 16 23 1003.2 1001.2 0.0
17/05:30pm 37.0 29.8 2.9 12 18.1 NW 30 43 16 23 1003.0 1001.0 0.0
17/05:09pm 37.6 29.7 0.8 10 19.0 NNW 32 54 17 29 1002.8 1000.8 0.0
17/05:00pm 37.7 30.4 2.2 11 18.8 N 30 44 16 24 1002.8 1000.8 0.0
17/04:44pm 37.9 30.0 2.4 11 18.8 N 33 54 18 29 1002.9 1000.9 0.0
17/04:30pm 37.7 29.0 2.2 11 18.7 N 37 54 20 29 1002.9 1000.9 0.0
17/04:11pm 37.4 29.7 3.2 12 18.3 NNW 33 52 18 28 1003.2 1001.2 0.0
17/04:00pm 37.8 29.7 3.5 12 18.6 NNW 35 48 19 26 1003.4 1001.4 0.0
17/03:30pm 38.5 30.6 4.1 12 18.8 NW 35 54 19 29 1003.6 1001.6 0.0
17/03:08pm 38.5 29.0 1.5 10 19.4 NNW 41 63 22 34 1003.8 1001.8 0.0
17/03:00pm 38.8 30.7 3.1 11 19.3 NW 35 52 19 28 1003.9 1001.9 0.0
17/02:31pm 38.5 29.3 1.5 10 19.4 NW 39 57 21 31 1004.1 1002.0 0.0
17/02:30pm 38.3 28.7 1.3 10 19.3 NW 41 57 22 31 1003.9 1001.9 0.0
17/02:00pm 38.4 29.2 1.4 10 19.4 NNW 39 59 21 32 1004.4 1002.3 0.0
17/01:31pm 38.6 30.4 2.9 11 19.1 NW 35 57 19 31 1004.6 1002.5 0.0
17/01:30pm 38.9 30.8 3.1 11 19.3 NW 35 50 19 27 1004.5 1002.4 0.0
17/01:00pm 38.0 30.3 2.5 11 18.9 NW 32 56 17 30 1005.0 1002.9 0.0
17/12:30pm 38.7 30.6 3.0 11 19.2 NW 35 56 19 30 1005.4 1003.4 0.0
17/12:00pm 37.8 29.7 3.5 12 18.5 NNW 35 61 19 33 1005.8 1003.8 0.0
17/11:32am 37.3 29.5 3.1 12 18.3 NNW 33 54 18 29 1006.1 1004.1 0.0
17/11:30am 36.7 29.1 3.8 13 17.7 NNW 33 44 18 24 1006.2 1004.2 0.0
17/11:00am 37.5 29.2 2.1 11 18.7 N 35 56 19 30 1006.4 1004.4 0.0
17/10:33am 36.4 29.5 4.6 14 17.3 N 30 48 16 26 1006.9 1004.8 0.0
17/10:30am 36.5 29.2 4.7 14 17.3 NNW 32 48 17 26 1006.9 1004.8 0.0
17/10:06am 35.5 28.1 4.9 15 16.7 NNW 33 56 18 30 1007.2 1005.1 0.0
17/10:00am 35.2 27.9 5.6 16 16.3 NNW 33 50 18 27 1007.3 1005.2 0.0
17/09:35am 34.3 26.7 5.8 17 15.6 N 35 54 19 29 1007.6 1005.6 0.0
17/09:30am 33.9 25.6 6.3 18 15.2 N 39 52 21 28 1007.7 1005.7 0.0
17/09:00am 32.8 24.7 6.9 20 14.4 N 39 57 21 31 1007.8 1005.8 0.0
17/08:48am 32.3 23.5 7.2 21 13.9 N 43 61 23 33 1007.9 1005.9 0.0
17/08:30am 31.7 22.9 7.4 22 13.5 N 43 57 23 31 1008.2 1006.2 0.0
17/08:19am 31.2 22.7 7.0 22 13.3 N 41 59 22 32 1008.3 1006.3 0.0
17/08:00am 30.7 22.0 7.8 24 12.8 NNE 43 59 23 32 1008.3 1006.3 0.0
17/07:30am 29.3 20.6 7.8 26 11.9 N 43 65 23 35 1008.3 1006.3 0.0
17/07:03am 27.9 19.0 7.7 28 11.1 NNE 44 63 24 34 1008.0 1006.0 0.0
17/07:00am 27.8 18.5 7.6 28 11.1 NNE 46 59 25 32 1007.9 1005.9 0.0
17/06:30am 26.5 19.3 7.5 30 10.3 NNE 35 52 19 28 1007.7 1005.7 0.0
17/06:00am 25.7 18.4 7.3 31 9.9 NNE 35 57 19 31 1007.5 1005.4 0.0
17/05:35am 25.2 17.8 6.9 31 9.7 NNE 35 54 19 29 1007.5 1005.4 0.0
17/05:30am 25.2 17.8 6.9 31 9.7 NNE 35 48 19 26 1007.4 1005.3 0.0
17/05:00am 24.9 17.9 6.1 30 9.9 NNE 32 44 17 24 1007.1 1005.0 0.0
17/04:47am 24.9 17.9 6.1 30 9.8 NNE 32 50 17 27 1006.7 1004.7 0.0
17/04:30am 24.9 18.6 5.7 29 10.0 NE 28 43 15 23 1006.5 1004.5 0.0
17/04:00am 25.0 19.0 5.2 28 10.2 NE 26 39 14 21 1006.2 1004.2 0.0
17/03:32am 25.1 18.6 4.8 27 10.4 NE 28 46 15 25 1006.3 1004.3 0.0
17/03:30am 25.1 18.6 4.8 27 10.4 NE 28 43 15 23 1006.3 1004.3 0.0
17/03:00am 25.4 19.0 5.1 27 10.5 NE 28 39 15 21 1006.3 1004.3 0.0
17/02:30am 25.6 19.1 4.7 26 10.7 NE 28 39 15 21 1006.5 1004.5 0.0
17/02:00am 26.0 19.2 5.0 26 10.9 NE 30 43 16 23 1006.9 1004.8 0.0
17/01:30am 26.2 20.1 4.6 25 11.1 ENE 26 39 14 21 1007.1 1005.0 0.0
17/01:00am 26.5 20.4 4.9 25 11.2 ENE 26 37 14 20 1007.3 1005.2 0.0
17/12:30am 27.0 20.9 4.7 24 11.5 ENE 26 39 14 21 1007.5 1005.4 0.0
17/12:00am 27.4 21.6 4.5 23 11.9 ENE 24 35 13 19 1007.9 1005.9 0.0
 
Date/Time
WST
Temp
°C
App
Temp
°C
Dew
Point
°C
Rel
Hum
%
Delta-T
°C
Wind Press
QNH
hPa
Press
MSL
hPa
Rain since
9am
mm
Dir  Spd
km/h
Gust
km/h
Spd
kts
Gust
kts
16/11:30pm 27.8 21.6 4.2 22 12.2 ENE 26 35 14 19 1008.1 1006.1 0.0
16/11:00pm 28.3 22.5 4.6 22 12.4 ENE 24 37 13 20 1008.3 1006.3 0.0
16/10:30pm 28.6 23.8 5.5 23 12.2 ENE 20 30 11 16 1008.6 1006.6 0.0
16/10:00pm 29.0 24.4 5.8 23 12.4 ENE 19 24 10 13 1008.6 1006.6 0.0
16/09:30pm 29.2 25.1 6.0 23 12.4 ENE 17 22 9 12 1008.7 1006.7 0.0
16/09:00pm 29.6 25.4 5.6 22 12.8 ENE 17 20 9 11 1008.9 1006.9 0.0
16/08:30pm 30.1 26.0 6.1 22 12.9 ENE 17 20 9 11 1008.8 1006.8 0.0

Other Formats:

Comma delimited format used in spreadsheet applications
http://www.bom.gov.au/fwo/IDW60801/IDW60801.94450.axf

JavaScript Object Notation format (JSON) in row-major order
http://www.bom.gov.au/fwo/IDW60801/IDW60801.94450.json